Time;durP1;ratioP1;P1;durP2;ratioP2;P2;SDS_P1;SDS_P2;PMS_P1;PMS_P2;Temp;Humidity;BMP_temperature;BMP_pressure;BME280_temperature;BME280_humidity;BME280_pressure;Samples;Min_cycle;Max_cycle;Signal;HPM_P1;HPM_P2
2023/03/27 00:02:21;;;;;;;0.30;0.30;;;;;;;18.40;46.21;100931.06;5114919;28;20047;-36
2023/03/27 00:04:47;;;;;;;0.30;0.30;;;;;;;18.39;46.21;100930.19;5114364;28;20055;-37
2023/03/27 00:07:13;;;;;;;0.30;0.30;;;;;;;18.39;45.97;100932.94;5114744;28;20075;-36
2023/03/27 00:09:39;;;;;;;0.30;0.30;;;;;;;18.39;46.12;100934.88;5114523;28;20050;-37
2023/03/27 00:12:05;;;;;;;0.30;0.30;;;;;;;18.39;46.00;100949.50;5114648;28;20457;-37
2023/03/27 00:14:31;;;;;;;0.30;0.30;;;;;;;18.40;46.08;100950.34;5114518;28;20290;-37
2023/03/27 00:16:58;;;;;;;0.30;0.30;;;;;;;18.38;45.87;100953.38;5114396;28;20054;-36
2023/03/27 00:19:25;;;;;;;0.30;0.30;;;;;;;18.39;46.16;100955.00;5114564;28;20600;-36
2023/03/27 00:21:52;;;;;;;0.30;0.30;;;;;;;18.39;45.81;100948.66;5114923;28;20077;-37
2023/03/27 00:24:18;;;;;;;0.25;0.25;;;;;;;18.39;45.96;100949.50;5115929;27;20271;-36
2023/03/27 00:26:43;;;;;;;0.30;0.30;;;;;;;18.38;45.74;100958.88;5117367;28;20096;-37
2023/03/27 00:29:09;;;;;;;0.30;0.30;;;;;;;18.39;45.99;100966.03;5117132;28;20047;-37
2023/03/27 00:31:35;;;;;;;0.30;0.30;;;;;;;18.39;46.08;100970.72;5118002;28;20511;-37
2023/03/27 00:34:02;;;;;;;0.30;0.30;;;;;;;18.39;45.87;100971.56;5118329;28;20043;-37
2023/03/27 00:36:28;;;;;;;0.30;0.30;;;;;;;18.39;46.15;100988.09;5118346;28;20047;-37
2023/03/27 00:38:53;;;;;;;0.30;0.30;;;;;;;18.39;46.13;100979.00;5118252;28;20048;-37
2023/03/27 00:41:20;;;;;;;0.30;0.30;;;;;;;18.38;46.00;100980.94;5118346;28;20047;-36
2023/03/27 00:43:47;;;;;;;0.20;0.20;;;;;;;18.39;45.99;100981.75;5101658;28;20432;-37
2023/03/27 00:46:26;;;;;;;0.30;0.30;;;;;;;18.38;46.14;100991.97;5098370;27;20062;-36
2023/03/27 00:48:54;;;;;;;0.30;0.30;;;;;;;18.39;46.06;100992.78;5097597;28;20054;-37
2023/03/27 00:51:21;;;;;;;0.30;0.30;;;;;;;18.39;46.02;101001.88;5117620;28;20077;-37
2023/03/27 00:53:47;;;;;;;0.20;0.20;;;;;;;18.39;46.16;101003.81;5118215;28;20107;-37
2023/03/27 00:56:15;;;;;;;0.30;0.30;;;;;;;18.39;45.85;101012.91;5118004;28;20043;-36
2023/03/27 00:58:45;;;;;;;0.20;0.20;;;;;;;18.39;46.06;101009.34;5117858;28;20039;-37
2023/03/27 01:01:12;;;;;;;0.30;0.30;;;;;;;18.39;45.80;100998.31;5117733;28;20047;-37
2023/03/27 01:03:40;;;;;;;0.30;0.30;;;;;;;18.39;46.01;101020.34;5099895;28;20050;-37
2023/03/27 01:06:06;;;;;;;0.20;0.20;;;;;;;18.39;46.21;101020.34;5099495;28;20050;-37
2023/03/27 01:08:32;;;;;;;0.30;0.30;;;;;;;18.39;45.95;101026.69;5117281;28;20502;-36
2023/03/27 01:11:38;;;;;;;0.30;0.30;;;;;;;18.39;46.24;101029.47;5098988;28;20066;-36
2023/03/27 01:14:12;;;;;;;0.20;0.20;;;;;;;18.39;46.10;101042.41;5090934;28;20145;-36
2023/03/27 01:16:49;;;;;;;0.30;0.30;;;;;;;18.39;46.21;101043.25;5117070;28;20226;-37
2023/03/27 01:19:37;;;;;;;0.30;0.30;;;;;;;18.39;45.97;101042.41;5099163;28;20075;-37
2023/03/27 01:22:20;;;;;;;0.20;0.20;;;;;;;18.39;45.96;101042.41;5116776;28;20435;-36
2023/03/27 01:24:59;;;;;;;0.30;0.30;;;;;;;18.39;45.95;101047.94;5117417;28;20466;-37
2023/03/27 01:27:50;;;;;;;0.30;0.30;;;;;;;18.39;45.97;101053.44;5116393;28;20090;-37
2023/03/27 01:30:20;;;;;;;0.30;0.30;;;;;;;18.38;46.08;101052.63;5116430;28;20043;-36
2023/03/27 01:33:25;;;;;;;0.30;0.30;;;;;;;18.38;46.08;101051.81;5116627;28;20043;-37
2023/03/27 01:36:22;;;;;;;0.20;0.20;;;;;;;18.38;46.09;101057.31;5090366;28;20403;-37
2023/03/27 01:39:16;;;;;;;0.30;0.30;;;;;;;18.38;46.03;101054.56;5101298;28;20542;-37
2023/03/27 01:42:02;;;;;;;0.30;0.30;;;;;;;18.38;45.94;101052.63;5102671;28;20055;-37
2023/03/27 01:44:55;;;;;;;0.20;0.20;;;;;;;18.38;45.86;101060.91;5098185;28;20055;-37
2023/03/27 01:47:28;;;;;;;0.30;0.30;;;;;;;18.37;46.09;101075.78;5101549;28;20156;-37
2023/03/27 01:50:07;;;;;;;0.30;0.30;;;;;;;18.38;46.07;101076.63;5098657;28;20051;-36
2023/03/27 01:52:37;;;;;;;0.30;0.30;;;;;;;18.38;46.12;101082.94;5098068;28;20075;-37
2023/03/27 01:55:08;;;;;;;0.30;0.30;;;;;;;18.38;45.99;101082.13;5116728;28;20051;-37
2023/03/27 01:57:44;;;;;;;0.25;0.25;;;;;;;18.39;46.13;101089.28;5116958;28;20697;-37
2023/03/27 02:00:20;;;;;;;0.30;0.30;;;;;;;18.38;46.05;101093.16;5116444;28;20051;-37
2023/03/27 02:02:53;;;;;;;0.30;0.30;;;;;;;18.38;45.90;101095.91;5116539;28;20043;-37
2023/03/27 02:05:27;;;;;;;0.30;0.30;;;;;;;18.37;45.94;101099.78;5116853;28;20050;-37
2023/03/27 02:07:58;;;;;;;0.20;0.20;;;;;;;18.38;45.99;101098.66;5081745;28;20487;-37
2023/03/27 02:10:29;;;;;;;0.30;0.30;;;;;;;18.37;45.93;101100.59;5081625;28;20070;-36
2023/03/27 02:12:58;;;;;;;0.30;0.30;;;;;;;18.39;46.11;101098.38;5116622;28;20045;-37
2023/03/27 02:15:30;;;;;;;0.30;0.30;;;;;;;18.38;45.88;101102.25;5097915;28;20078;-36
2023/03/27 02:18:08;;;;;;;0.30;0.30;;;;;;;18.38;45.94;101113.28;5116302;28;20447;-37
2023/03/27 02:20:35;;;;;;;;;;;;;;;18.37;46.21;101119.91;5116494;28;20051;-37
2023/03/27 02:23:01;;;;;;;0.30;0.30;;;;;;;18.37;46.04;101116.31;5097653;28;19926;-37
2023/03/27 02:25:31;;;;;;;0.30;0.30;;;;;;;18.37;46.19;101125.41;5097606;28;20050;-37
2023/03/27 02:28:08;;;;;;;0.30;0.30;;;;;;;18.38;45.89;101131.75;5098082;28;20391;-36
2023/03/27 02:30:39;;;;;;;0.20;0.20;;;;;;;18.37;45.91;101141.97;5113293;28;20047;-37
2023/03/27 02:33:16;;;;;;;0.30;0.30;;;;;;;18.37;46.05;101133.69;5100229;28;20039;-37
2023/03/27 02:35:55;;;;;;;0.30;0.30;;;;;;;18.38;46.00;101145.53;5114513;28;20058;-37
2023/03/27 02:38:24;;;;;;;;;;;;;;;18.37;45.96;101144.72;5115348;28;20814;-36
2023/03/27 02:41:02;;;;;;;0.30;0.30;;;;;;;18.37;46.16;101143.91;5099810;28;19969;-38
2023/03/27 02:43:37;;;;;;;0.30;0.30;;;;;;;18.38;45.99;101151.06;5108471;28;20244;-37
2023/03/27 02:46:10;;;;;;;0.30;0.30;;;;;;;18.37;45.92;101154.94;5123284;27;20051;-36
2023/03/27 02:48:40;;;;;;;0.30;0.30;;;;;;;18.37;45.96;101155.75;5116493;27;20481;-37
2023/03/27 02:51:11;;;;;;;0.30;0.30;;;;;;;18.38;46.10;101160.16;5097818;27;20050;-36
2023/03/27 02:53:43;;;;;;;0.30;0.30;;;;;;;18.37;45.96;101150.25;5060608;28;20487;-37
2023/03/27 02:56:09;;;;;;;0.30;0.30;;;;;;;18.38;46.07;101162.09;5095217;28;20047;-37
2023/03/27 02:58:43;;;;;;;0.30;0.30;;;;;;;18.37;45.93;101161.25;5095858;28;20054;-37
2023/03/27 03:01:12;;;;;;;0.40;0.40;;;;;;;18.38;46.10;101167.59;5077321;28;20661;-36
2023/03/27 03:03:43;;;;;;;0.30;0.30;;;;;;;18.37;45.87;101166.78;5094996;28;20040;-36
2023/03/27 03:06:09;;;;;;;0.30;0.30;;;;;;;18.38;46.17;101173.94;5076785;28;20570;-37
2023/03/27 03:08:37;;;;;;;0.30;0.30;;;;;;;18.38;45.84;101175.88;5095697;28;20091;-36
2023/03/27 03:11:06;;;;;;;0.28;0.28;;;;;;;18.38;46.17;101184.16;5076756;28;20055;-36
2023/03/27 03:13:31;;;;;;;0.20;0.20;;;;;;;18.37;45.98;101180.56;5076853;28;20052;-37
2023/03/27 03:15:57;;;;;;;0.30;0.30;;;;;;;18.37;45.91;101185.25;5094898;28;20451;-37
2023/03/27 03:18:23;;;;;;;0.30;0.30;;;;;;;18.38;45.95;101189.66;5095231;28;20055;-37
2023/03/27 03:20:53;;;;;;;0.30;0.30;;;;;;;18.38;46.09;101189.66;5095073;28;20058;-37
2023/03/27 03:23:20;;;;;;;0.30;0.30;;;;;;;18.36;46.10;101198.22;5094808;28;20534;-37
2023/03/27 03:25:49;;;;;;;0.30;0.30;;;;;;;18.38;45.80;101206.22;5094695;28;20044;-37
2023/03/27 03:28:17;;;;;;;;;;;;;;;18.37;46.04;101207.31;5095119;28;20186;-37
2023/03/27 03:30:46;;;;;;;0.20;0.20;;;;;;;18.37;45.98;101210.06;5101685;28;19919;-37
2023/03/27 03:33:13;;;;;;;0.30;0.30;;;;;;;18.36;46.05;101214.75;5113358;28;20047;-36
2023/03/27 03:35:39;;;;;;;0.30;0.30;;;;;;;18.36;45.89;101209.25;5114794;27;20370;-36
2023/03/27 03:38:05;;;;;;;0.30;0.30;;;;;;;18.37;46.02;101218.34;5096611;28;20479;-36
2023/03/27 03:40:31;;;;;;;0.30;0.30;;;;;;;18.37;45.99;101221.94;5115637;28;20050;-37
2023/03/27 03:42:57;;;;;;;0.30;0.30;;;;;;;18.37;46.17;101226.63;5079554;28;20043;-37
2023/03/27 03:45:23;;;;;;;0.30;0.30;;;;;;;18.38;45.80;101236.53;5127340;27;20085;-36
2023/03/27 03:47:48;;;;;;;0.30;0.30;;;;;;;18.37;45.82;101237.66;5125860;27;20039;-37
2023/03/27 03:50:15;;;;;;;0.30;0.30;;;;;;;18.38;45.91;101247.56;5096015;28;20043;-36
2023/03/27 03:52:41;;;;;;;0.30;0.30;;;;;;;18.38;46.10;101253.09;5059613;28;20508;-37
2023/03/27 03:55:09;;;;;;;0.30;0.30;;;;;;;18.37;45.88;101257.78;5075743;28;20051;-37
2023/03/27 03:57:35;;;;;;;0.20;0.20;;;;;;;18.37;45.93;101249.50;5076163;28;20175;-37
2023/03/27 04:00:05;;;;;;;0.30;0.30;;;;;;;18.38;45.89;101253.09;5097129;28;20488;-37
2023/03/27 04:02:33;;;;;;;0.30;0.30;;;;;;;18.36;46.07;101258.88;5098405;28;20071;-36
2023/03/27 04:04:59;;;;;;;0.30;0.30;;;;;;;18.38;46.03;101258.59;5079804;28;20078;-37
2023/03/27 04:07:30;;;;;;;0.30;0.30;;;;;;;18.36;45.88;101261.63;5079483;28;20052;-36
2023/03/27 04:09:58;;;;;;;0.30;0.30;;;;;;;18.37;45.84;101265.22;5080064;28;20078;-37
2023/03/27 04:12:24;;;;;;;0.20;0.20;;;;;;;18.36;46.10;101264.41;5098457;28;20047;-37
2023/03/27 04:14:50;;;;;;;0.30;0.30;;;;;;;18.36;46.07;101264.41;5079457;28;20143;-36
2023/03/27 04:17:16;;;;;;;0.30;0.30;;;;;;;18.37;45.86;101268.81;5097585;28;20511;-37
2023/03/27 04:19:45;;;;;;;0.30;0.30;;;;;;;18.37;46.04;101265.22;5097807;28;20040;-36
2023/03/27 04:22:11;;;;;;;;;;;;;;;18.37;46.04;101284.53;5098699;28;20616;-37
2023/03/27 04:24:37;;;;;;;0.30;0.30;;;;;;;18.36;45.84;101282.88;5097839;28;19989;-37
2023/03/27 04:27:04;;;;;;;0.30;0.30;;;;;;;18.35;45.85;101290.31;5097389;28;20048;-36
2023/03/27 04:29:30;;;;;;;0.30;0.30;;;;;;;18.37;46.08;101290.03;5062792;28;20075;-36
2023/03/27 04:31:57;;;;;;;0.30;0.30;;;;;;;18.37;46.02;101295.56;5099770;28;20047;-36
2023/03/27 04:34:23;;;;;;;0.30;0.30;;;;;;;18.36;45.88;101297.47;5100077;28;20491;-36
2023/03/27 04:36:50;;;;;;;0.30;0.30;;;;;;;18.37;46.04;101306.59;5099644;28;20113;-37
2023/03/27 04:39:17;;;;;;;0.30;0.30;;;;;;;18.37;45.90;101307.41;5099295;28;20062;-37
2023/03/27 04:41:48;;;;;;;0.30;0.30;;;;;;;18.37;45.97;101306.59;5099437;28;20411;-37
2023/03/27 04:44:16;;;;;;;0.30;0.30;;;;;;;18.37;46.08;101314.84;5120048;27;20581;-36
2023/03/27 04:46:43;;;;;;;0.30;0.30;;;;;;;18.37;45.89;101323.13;5120350;27;20135;-36
2023/03/27 04:49:09;;;;;;;0.30;0.30;;;;;;;18.36;45.97;101325.06;5132100;27;20051;-37
2023/03/27 04:51:35;;;;;;;0.30;0.30;;;;;;;18.37;45.98;101325.88;5109923;27;20079;-36
2023/03/27 04:54:06;;;;;;;0.30;0.30;;;;;;;18.37;45.85;101328.66;5079692;28;20076;-36
2023/03/27 04:56:33;;;;;;;0.30;0.30;;;;;;;18.36;46.06;101335.25;5079837;28;20047;-36
2023/03/27 04:59:02;;;;;;;0.30;0.30;;;;;;;18.36;46.02;101329.75;5107769;28;20301;-37
2023/03/27 05:01:28;;;;;;;;;;;;;;;18.36;45.81;101330.56;5066832;28;20410;-37
2023/03/27 05:03:55;;;;;;;0.40;0.40;;;;;;;18.36;45.84;101332.50;5108800;28;19930;-37
2023/03/27 05:06:21;;;;;;;0.30;0.30;;;;;;;18.35;45.98;101337.19;5088056;28;20122;-37
2023/03/27 05:08:47;;;;;;;0.30;0.30;;;;;;;18.35;45.95;101339.09;5095445;28;20092;-37
2023/03/27 05:11:12;;;;;;;0.30;0.30;;;;;;;18.36;46.04;101347.13;5108635;27;20184;-36
2023/03/27 05:13:38;;;;;;;0.30;0.30;;;;;;;18.36;46.11;101347.13;5108608;28;20118;-37
2023/03/27 05:16:04;;;;;;;0.30;0.30;;;;;;;18.37;45.83;101347.94;5089000;27;20070;-37
2023/03/27 05:18:30;;;;;;;0.30;0.30;;;;;;;18.36;45.96;101344.34;5098375;28;20418;-37
2023/03/27 05:20:57;;;;;;;0.30;0.30;;;;;;;18.36;45.90;101357.31;5107590;28;20502;-37
2023/03/27 05:23:24;;;;;;;0.20;0.20;;;;;;;18.37;45.97;101357.03;5095657;28;20128;-36
2023/03/27 05:25:50;;;;;;;0.30;0.30;;;;;;;18.37;46.02;101370.84;5109380;28;20095;-37
2023/03/27 05:28:26;;;;;;;0.30;0.30;;;;;;;18.37;45.96;101372.75;5110605;27;20097;-36
2023/03/27 05:30:51;;;;;;;0.30;0.30;;;;;;;18.36;45.84;101371.94;5108276;27;21068;-36
2023/03/27 05:33:17;;;;;;;0.30;0.30;;;;;;;18.36;46.00;101379.38;5111894;28;20035;-37
2023/03/27 05:35:47;;;;;;;0.30;0.30;;;;;;;18.37;45.76;101381.03;5110662;27;21757;-37
2023/03/27 05:38:13;;;;;;;0.30;0.30;;;;;;;18.36;46.08;101382.13;5095799;28;20972;-36
2023/03/27 05:40:38;;;;;;;0.30;0.30;;;;;;;18.35;45.82;101381.31;5107686;28;20538;-37
2023/03/27 05:43:04;;;;;;;0.30;0.30;;;;;;;18.36;45.08;101396.75;5112491;27;20139;-36
2023/03/27 05:45:31;;;;;;;0.30;0.30;;;;;;;18.35;46.00;101392.34;5083365;27;20189;-36
2023/03/27 05:47:59;;;;;;;0.30;0.30;;;;;;;18.36;45.86;101395.94;5102465;27;20209;-37
2023/03/27 05:50:27;;;;;;;0.30;0.30;;;;;;;18.35;45.76;101397.84;5089696;28;20350;-37
2023/03/27 05:52:55;;;;;;;0.30;0.30;;;;;;;18.37;45.90;101405.84;5094380;28;20047;-37
2023/03/27 05:55:21;;;;;;;0.20;0.20;;;;;;;18.35;44.18;101410.78;5083011;28;20039;-36
2023/03/27 05:57:47;;;;;;;0.30;0.30;;;;;;;18.34;44.18;101423.75;5082468;28;20079;-36
2023/03/27 06:00:13;;;;;;;0.30;0.30;;;;;;;18.34;44.11;101420.16;5095721;27;20039;-37
2023/03/27 06:02:41;;;;;;;0.30;0.30;;;;;;;18.34;44.43;101420.16;5072920;28;20425;-36
2023/03/27 06:05:12;;;;;;;0.30;0.30;;;;;;;18.33;43.48;101422.09;5094305;27;20654;-37
2023/03/27 06:07:37;;;;;;;0.30;0.30;;;;;;;18.33;43.67;101424.84;5074212;28;20508;-37
2023/03/27 06:10:06;;;;;;;0.20;0.20;;;;;;;18.34;44.32;101428.44;5095663;28;20046;-37
2023/03/27 06:12:39;;;;;;;0.30;0.30;;;;;;;18.35;45.80;101435.59;5086524;28;20131;-38
2023/03/27 06:15:06;;;;;;;0.30;0.30;;;;;;;18.34;44.95;101445.81;5101230;28;20624;-37
2023/03/27 06:17:32;;;;;;;0.30;0.30;;;;;;;18.34;45.48;101434.78;5081289;28;20506;-37
2023/03/27 06:19:58;;;;;;;0.20;0.20;;;;;;;18.35;45.73;101446.63;5099172;27;20426;-37
2023/03/27 06:22:25;;;;;;;0.30;0.30;;;;;;;18.34;44.66;101448.56;5080795;28;20485;-36
2023/03/27 06:24:52;;;;;;;0.30;0.30;;;;;;;18.35;44.80;101452.16;5103774;28;20419;-36
2023/03/27 06:27:19;;;;;;;0.30;0.30;;;;;;;18.35;45.55;101454.91;5080019;28;20043;-37
2023/03/27 06:29:46;;;;;;;0.30;0.30;;;;;;;18.34;45.63;101451.31;5088269;27;20100;-37
2023/03/27 06:32:12;;;;;;;0.30;0.30;;;;;;;18.34;43.67;101469.78;5093040;28;20454;-37
2023/03/27 06:34:38;;;;;;;0.30;0.30;;;;;;;18.34;45.54;101467.03;5091618;28;20152;-37
2023/03/27 06:37:04;;;;;;;0.30;0.30;;;;;;;18.34;45.63;101467.03;5106779;28;20047;-36
2023/03/27 06:39:29;;;;;;;0.30;0.30;;;;;;;18.34;45.64;101465.09;5110661;27;20043;-37
2023/03/27 06:41:55;;;;;;;0.30;0.30;;;;;;;18.35;45.49;101465.94;5089471;28;20040;-38
2023/03/27 06:44:21;;;;;;;0.30;0.30;;;;;;;18.33;45.63;101463.44;5100575;28;20510;-37
2023/03/27 06:46:47;;;;;;;0.30;0.30;;;;;;;18.32;44.72;101475.56;5099850;27;20044;-37
2023/03/27 06:49:13;;;;;;;0.30;0.30;;;;;;;18.33;44.09;101474.47;5090465;28;20051;-37
2023/03/27 06:51:39;;;;;;;0.30;0.30;;;;;;;18.34;44.80;101476.13;5075747;28;20082;-37
2023/03/27 06:54:05;;;;;;;0.30;0.30;;;;;;;18.34;44.59;101487.16;5099318;28;20047;-36
2023/03/27 06:56:30;;;;;;;0.20;0.20;;;;;;;18.33;44.34;101485.50;5096664;28;20483;-37
2023/03/27 06:58:56;;;;;;;0.30;0.30;;;;;;;18.33;43.74;101491.03;5098606;28;20047;-37
2023/03/27 07:01:22;;;;;;;0.30;0.30;;;;;;;18.30;43.91;101486.00;5095640;27;20038;-37
2023/03/27 07:03:48;;;;;;;0.30;0.30;;;;;;;18.33;43.88;101487.44;5087378;27;20051;-36
2023/03/27 07:06:15;;;;;;;0.30;0.30;;;;;;;18.25;42.97;101488.72;5083538;27;20047;-37
2023/03/27 07:08:40;;;;;;;0.30;0.30;;;;;;;18.30;42.88;101499.81;5086784;27;20507;-37
2023/03/27 07:11:07;;;;;;;0.22;0.22;;;;;;;18.33;43.43;101504.81;5074592;28;20517;-37
2023/03/27 07:13:39;;;;;;;0.30;0.30;;;;;;;18.33;44.43;101510.31;5072166;28;20227;-36
2023/03/27 07:16:06;;;;;;;0.20;0.20;;;;;;;18.34;44.33;101511.16;5099907;27;20080;-36
2023/03/27 07:18:31;;;;;;;0.30;0.30;;;;;;;18.33;43.59;101515.00;5104483;28;20298;-37
2023/03/27 07:20:57;;;;;;;0.30;0.30;;;;;;;18.34;43.23;101522.19;5103843;28;20051;-36
2023/03/27 07:23:23;;;;;;;0.30;0.30;;;;;;;18.31;43.80;101520.78;5101401;28;20035;-37
2023/03/27 07:25:50;;;;;;;0.20;0.20;;;;;;;18.35;44.20;101523.84;5100595;27;20103;-37
2023/03/27 07:28:17;;;;;;;0.20;0.20;;;;;;;18.37;45.11;101525.25;5102048;28;20035;-37
2023/03/27 07:30:42;;;;;;;0.30;0.30;;;;;;;18.38;44.72;101526.09;5101620;27;20035;-36
2023/03/27 07:33:09;;;;;;;0.30;0.30;;;;;;;18.39;44.21;101525.81;5085040;28;20042;-37
2023/03/27 07:35:44;;;;;;;0.30;0.30;;;;;;;18.39;44.39;101523.06;5078160;28;20058;-37
2023/03/27 07:38:10;;;;;;;0.30;0.30;;;;;;;18.39;44.38;101533.25;5105058;27;20047;-36
2023/03/27 07:40:36;;;;;;;0.30;0.30;;;;;;;18.39;44.70;101538.78;5066847;28;20035;-37
2023/03/27 07:43:06;;;;;;;0.30;0.30;;;;;;;18.39;44.59;101544.28;5089026;28;20445;-37
2023/03/27 07:45:32;;;;;;;0.30;0.30;;;;;;;18.41;44.94;101551.22;5107852;28;20471;-37
2023/03/27 07:48:07;;;;;;;0.20;0.20;;;;;;;18.41;45.36;101548.47;5098379;28;20118;-37
2023/03/27 07:50:33;;;;;;;0.20;0.20;;;;;;;18.42;45.07;101552.03;5076201;27;20798;-37
2023/03/27 07:52:59;;;;;;;0.30;0.30;;;;;;;18.42;45.32;101554.81;5064985;28;20098;-36
2023/03/27 07:55:28;;;;;;;0.30;0.30;;;;;;;18.43;45.34;101554.53;5096563;27;20455;-37
2023/03/27 07:57:54;;;;;;;0.20;0.20;;;;;;;18.44;45.26;101552.63;5100052;27;20042;-37
2023/03/27 08:00:29;;;;;;;0.30;0.30;;;;;;;18.43;45.08;101562.81;5102391;27;20051;-36
2023/03/27 08:03:05;;;;;;;0.30;0.30;;;;;;;18.44;45.39;101563.66;5073011;28;20078;-37
2023/03/27 08:05:31;;;;;;;0.30;0.30;;;;;;;18.44;45.12;101564.50;5096507;28;20035;-37
2023/03/27 08:07:56;;;;;;;0.30;0.30;;;;;;;18.43;45.27;101560.03;5093269;28;20118;-36
2023/03/27 08:10:22;;;;;;;0.30;0.30;;;;;;;18.42;44.34;101561.16;5089124;27;20039;-37
2023/03/27 08:12:48;;;;;;;0.30;0.30;;;;;;;18.44;43.93;101563.66;5094794;27;20157;-37
2023/03/27 08:15:14;;;;;;;0.30;0.30;;;;;;;18.43;43.55;101573.00;5094859;27;20291;-37
2023/03/27 08:17:40;;;;;;;0.20;0.20;;;;;;;18.41;43.43;101569.69;5092096;27;20075;-36
2023/03/27 08:20:08;;;;;;;0.30;0.30;;;;;;;18.39;42.90;101578.22;5097875;27;20039;-37
2023/03/27 08:22:35;;;;;;;0.30;0.30;;;;;;;18.38;42.54;101571.03;5076887;28;20558;-37
2023/03/27 08:25:03;;;;;;;0.20;0.20;;;;;;;18.39;43.02;101574.63;5102010;28;20255;-37
2023/03/27 08:27:30;;;;;;;0.20;0.20;;;;;;;18.39;42.40;101566.34;5098003;27;20461;-36
2023/03/27 08:29:57;;;;;;;0.30;0.30;;;;;;;18.40;42.67;101571.63;5099913;27;20051;-38
2023/03/27 08:32:23;;;;;;;0.30;0.30;;;;;;;18.36;42.61;101578.75;5093006;28;20063;-36
2023/03/27 08:34:49;;;;;;;0.30;0.30;;;;;;;18.38;43.11;101590.34;5084498;27;20051;-36
2023/03/27 08:37:14;;;;;;;0.40;0.40;;;;;;;18.36;41.93;101586.19;5089899;27;20084;-37
2023/03/27 08:39:40;;;;;;;0.30;0.30;;;;;;;18.38;42.32;101593.09;5093882;27;20047;-36
2023/03/27 08:42:14;;;;;;;0.30;0.30;;;;;;;18.39;42.09;101610.47;5094191;27;20035;-37
2023/03/27 08:44:43;;;;;;;0.30;0.30;;;;;;;18.41;42.81;101602.78;5088637;28;20407;-37
2023/03/27 08:47:18;;;;;;;0.30;0.30;;;;;;;18.40;42.40;101596.44;5103638;28;20043;-36
2023/03/27 08:49:48;;;;;;;0.30;0.30;;;;;;;18.41;42.24;101611.06;5106790;28;20411;-37
2023/03/27 08:52:16;;;;;;;0.30;0.30;;;;;;;18.41;41.28;101616.56;5081319;28;20407;-37
2023/03/27 08:54:45;;;;;;;0.20;0.20;;;;;;;18.44;42.47;101610.56;5096472;28;20491;-37
2023/03/27 08:57:17;;;;;;;0.30;0.30;;;;;;;18.45;43.55;101617.72;5093535;28;20085;-37
2023/03/27 08:59:43;;;;;;;0.30;0.30;;;;;;;18.44;42.94;101633.44;5089300;28;20054;-36
2023/03/27 09:02:17;;;;;;;0.30;0.30;;;;;;;17.70;38.95;101625.59;5103982;28;20049;-40
2023/03/27 09:04:50;;;;;;;0.30;0.30;;;;;;;17.60;39.64;101630.09;5089166;28;20051;-43
2023/03/27 09:07:43;;;;;;;0.30;0.30;;;;;;;18.03;40.47;101635.69;5096517;28;20070;-37
2023/03/27 09:10:31;;;;;;;0.30;0.30;;;;;;;18.29;41.54;101636.00;5107581;28;20277;-37
2023/03/27 09:13:18;;;;;;;0.30;0.30;;;;;;;18.36;40.82;101633.91;5095350;27;20051;-37
2023/03/27 09:15:55;;;;;;;0.30;0.30;;;;;;;18.41;41.62;101636.72;5093772;27;20043;-37
2023/03/27 09:18:29;;;;;;;0.30;0.30;;;;;;;18.44;41.04;101640.88;5103615;27;20415;-39
2023/03/27 09:21:00;;;;;;;0.30;0.30;;;;;;;18.45;41.08;101645.31;5083810;27;20058;-39
2023/03/27 09:23:32;;;;;;;0.30;0.30;;;;;;;18.44;41.12;101641.72;5110474;27;20375;-39
2023/03/27 09:26:04;;;;;;;0.30;0.30;;;;;;;18.45;41.14;101642.53;5083096;28;20470;-40
2023/03/27 09:28:35;;;;;;;0.30;0.30;;;;;;;18.46;41.54;101633.19;5091711;28;20061;-39
2023/03/27 09:31:23;;;;;;;0.20;0.20;;;;;;;18.46;41.15;101641.44;5103147;27;20063;-40
2023/03/27 09:33:50;;;;;;;0.20;0.20;;;;;;;18.48;41.48;101644.75;5090545;28;20042;-39
2023/03/27 09:36:16;;;;;;;0.30;0.30;;;;;;;18.43;41.15;101637.28;5104000;28;20092;-39
2023/03/27 09:38:45;;;;;;;0.35;0.35;;;;;;;18.42;41.63;101637.53;5097690;27;20485;-39
2023/03/27 09:41:13;;;;;;;0.30;0.30;;;;;;;18.20;40.21;101649.41;5083874;27;20086;-39
2023/03/27 09:43:40;;;;;;;;;;;;;;;18.28;39.96;101653.66;5094643;28;20320;-39
2023/03/27 09:46:07;;;;;;;0.30;0.30;;;;;;;18.37;40.67;101648.53;5088259;27;20529;-39
2023/03/27 09:48:37;;;;;;;0.30;0.30;;;;;;;18.45;41.00;101654.41;5088201;27;20043;-39
2023/03/27 09:51:04;;;;;;;0.30;0.30;;;;;;;18.49;41.12;101657.50;5111587;28;20043;-39
2023/03/27 09:53:31;;;;;;;0.30;0.30;;;;;;;18.42;40.89;101656.84;5106001;28;20833;-39
2023/03/27 09:56:00;;;;;;;0.30;0.30;;;;;;;18.50;40.83;101661.91;5082493;28;20575;-39
2023/03/27 09:58:32;;;;;;;0.40;0.40;;;;;;;18.51;41.20;101656.13;5101522;27;20487;-39
2023/03/27 10:01:33;;;;;;;0.30;0.30;;;;;;;18.51;41.62;101664.41;5106278;27;20047;-39
2023/03/27 10:04:00;;;;;;;0.30;0.30;;;;;;;18.45;41.97;101661.84;5076807;27;20046;-39
2023/03/27 10:06:29;;;;;;;0.30;0.30;;;;;;;18.52;41.68;101655.06;5086458;28;20777;-39
2023/03/27 10:08:59;;;;;;;0.30;0.30;;;;;;;18.54;41.82;101660.31;5094572;28;20054;-40
2023/03/27 10:11:28;;;;;;;0.30;0.30;;;;;;;18.54;41.80;101665.81;5093564;28;20051;-39
2023/03/27 10:13:55;;;;;;;0.30;0.30;;;;;;;18.55;42.21;101662.78;5088364;28;20112;-40
2023/03/27 10:16:21;;;;;;;0.30;0.30;;;;;;;18.55;42.01;101660.03;5084069;27;20490;-39
2023/03/27 10:18:54;;;;;;;0.20;0.20;;;;;;;18.55;42.20;101657.28;5104475;27;20059;-39
2023/03/27 10:21:30;;;;;;;0.20;0.20;;;;;;;18.55;42.22;101651.75;5100747;27;20050;-39
2023/03/27 10:24:02;;;;;;;0.28;0.28;;;;;;;18.57;42.71;101659.78;5089268;28;20071;-39
2023/03/27 10:26:30;;;;;;;0.30;0.30;;;;;;;18.56;42.62;101658.09;5102648;27;20490;-39
2023/03/27 10:29:01;;;;;;;0.30;0.30;;;;;;;18.56;42.70;101667.19;5087139;28;20079;-39
2023/03/27 10:31:32;;;;;;;0.30;0.30;;;;;;;18.58;42.70;101660.63;5086891;28;20096;-39
2023/03/27 10:34:00;;;;;;;0.35;0.35;;;;;;;18.60;42.56;101663.94;5080947;27;20054;-39
2023/03/27 10:36:27;;;;;;;0.30;0.30;;;;;;;18.59;42.83;101676.91;5083220;28;20077;-39
2023/03/27 10:38:55;;;;;;;0.30;0.30;;;;;;;18.57;42.58;101670.81;5082108;28;20047;-40
2023/03/27 10:41:21;;;;;;;0.30;0.30;;;;;;;18.58;42.72;101663.38;5073957;28;20059;-39
2023/03/27 10:43:55;;;;;;;0.30;0.30;;;;;;;18.60;42.66;101674.97;5094113;27;20069;-39
2023/03/27 10:46:25;;;;;;;0.30;0.30;;;;;;;18.60;42.53;101677.72;5061295;28;20526;-39
2023/03/27 10:48:59;;;;;;;0.30;0.30;;;;;;;18.61;42.82;101677.50;5073354;28;20135;-39
2023/03/27 10:51:33;;;;;;;0.20;0.20;;;;;;;18.61;42.55;101671.13;5081568;28;20083;-39
2023/03/27 10:54:26;;;;;;;0.20;0.20;;;;;;;18.58;42.10;101675.25;5089083;28;20039;-39
2023/03/27 10:57:22;;;;;;;0.30;0.30;;;;;;;18.44;39.21;101680.34;5105437;27;20096;-39
2023/03/27 11:00:18;;;;;;;0.20;0.20;;;;;;;18.49;39.36;101694.19;5076453;28;20263;-39
2023/03/27 11:02:56;;;;;;;0.30;0.30;;;;;;;18.54;39.50;101698.91;5101333;28;20062;-40
2023/03/27 11:05:27;;;;;;;0.20;0.20;;;;;;;18.55;39.96;101695.06;5079594;28;20043;-40
2023/03/27 11:08:18;;;;;;;0.30;0.30;;;;;;;18.56;39.79;101697.56;5077205;27;20099;-39
2023/03/27 11:10:45;;;;;;;0.30;0.30;;;;;;;18.54;40.13;101697.00;5097955;27;20733;-39
2023/03/27 11:13:17;;;;;;;0.30;0.30;;;;;;;18.58;40.53;101699.25;5074431;28;20039;-39
2023/03/27 11:15:53;;;;;;;0.30;0.30;;;;;;;18.58;39.98;101718.56;5103938;27;20055;-39
2023/03/27 11:18:34;;;;;;;0.30;0.30;;;;;;;18.54;40.12;101729.25;5070878;27;20082;-39
2023/03/27 11:21:03;;;;;;;0.30;0.30;;;;;;;18.54;40.88;101740.28;5088384;28;20054;-39
2023/03/27 11:23:36;;;;;;;0.30;0.30;;;;;;;18.52;40.46;101751.59;5067659;27;20059;-39
2023/03/27 11:26:04;;;;;;;0.20;0.20;;;;;;;18.50;40.63;101767.56;5097407;27;20375;-39
2023/03/27 11:28:53;;;;;;;0.20;0.20;;;;;;;18.47;40.17;101770.81;5075901;28;20047;-39
2023/03/27 11:31:36;;;;;;;0.30;0.30;;;;;;;18.47;40.24;101759.78;5075957;28;20077;-39
2023/03/27 11:36:50;;;;;;;0.28;0.28;;;;;;;18.50;39.62;101753.75;5104501;27;20129;-37
2023/03/27 11:39:35;;;;;;;0.20;0.20;;;;;;;18.54;39.69;101756.84;5080753;28;20043;-37
2023/03/27 11:42:08;;;;;;;0.20;0.20;;;;;;;18.53;40.39;101761.53;5043885;28;20048;-39
2023/03/27 11:44:33;;;;;;;0.20;0.20;;;;;;;18.53;39.28;101758.78;5084152;28;20500;-39